sensor_id;sensor_type;location;lat;lon;timestamp;P1;durP1;ratioP1;P2;durP2;ratioP2
12776;SDS011;6452;41.572;23.732;2022-09-02T00:01:47;14.27;;;11.63;;
12776;SDS011;6452;41.572;23.732;2022-09-02T00:04:15;11.68;;;10.18;;
12776;SDS011;6452;41.572;23.732;2022-09-02T00:06:41;14.48;;;11.32;;
12776;SDS011;6452;41.572;23.732;2022-09-02T00:09:09;12.00;;;10.90;;
12776;SDS011;6452;41.572;23.732;2022-09-02T00:11:35;11.00;;;10.13;;
12776;SDS011;6452;41.572;23.732;2022-09-02T00:14:02;13.50;;;11.38;;
12776;SDS011;6452;41.572;23.732;2022-09-02T00:16:29;11.52;;;10.52;;
12776;SDS011;6452;41.572;23.732;2022-09-02T00:18:56;12.38;;;10.90;;
12776;SDS011;6452;41.572;23.732;2022-09-02T00:21:22;11.50;;;10.50;;
12776;SDS011;6452;41.572;23.732;2022-09-02T00:23:49;13.57;;;11.43;;
12776;SDS011;6452;41.572;23.732;2022-09-02T00:26:18;12.23;;;10.95;;
12776;SDS011;6452;41.572;23.732;2022-09-02T00:28:44;11.80;;;10.63;;
12776;SDS011;6452;41.572;23.732;2022-09-02T00:31:11;12.45;;;10.85;;
12776;SDS011;6452;41.572;23.732;2022-09-02T00:33:37;12.50;;;11.07;;
12776;SDS011;6452;41.572;23.732;2022-09-02T00:36:04;11.20;;;10.15;;
12776;SDS011;6452;41.572;23.732;2022-09-02T00:38:30;12.32;;;10.95;;
12776;SDS011;6452;41.572;23.732;2022-09-02T00:41:17;11.52;;;10.43;;
12776;SDS011;6452;41.572;23.732;2022-09-02T00:46:11;11.27;;;10.15;;
12776;SDS011;6452;41.572;23.732;2022-09-02T00:48:38;13.70;;;10.88;;
12776;SDS011;6452;41.572;23.732;2022-09-02T00:51:06;11.77;;;10.75;;
12776;SDS011;6452;41.572;23.732;2022-09-02T00:53:32;14.13;;;12.65;;
12776;SDS011;6452;41.572;23.732;2022-09-02T00:55:58;14.93;;;13.45;;
12776;SDS011;6452;41.572;23.732;2022-09-02T00:58:26;18.02;;;13.15;;
12776;SDS011;6452;41.572;23.732;2022-09-02T01:00:55;14.68;;;13.15;;
12776;SDS011;6452;41.572;23.732;2022-09-02T01:03:28;13.52;;;12.13;;
12776;SDS011;6452;41.572;23.732;2022-09-02T01:05:54;14.68;;;13.38;;
12776;SDS011;6452;41.572;23.732;2022-09-02T01:08:24;14.45;;;13.07;;
12776;SDS011;6452;41.572;23.732;2022-09-02T01:10:51;15.20;;;13.23;;
12776;SDS011;6452;41.572;23.732;2022-09-02T01:13:20;14.13;;;12.63;;
12776;SDS011;6452;41.572;23.732;2022-09-02T01:15:49;15.95;;;12.70;;
12776;SDS011;6452;41.572;23.732;2022-09-02T01:18:19;14.88;;;13.40;;
12776;SDS011;6452;41.572;23.732;2022-09-02T01:20:45;14.15;;;12.75;;
12776;SDS011;6452;41.572;23.732;2022-09-02T01:23:11;15.60;;;13.90;;
12776;SDS011;6452;41.572;23.732;2022-09-02T01:25:38;15.20;;;13.63;;
12776;SDS011;6452;41.572;23.732;2022-09-02T01:28:05;15.30;;;13.77;;
12776;SDS011;6452;41.572;23.732;2022-09-02T01:30:31;16.23;;;12.63;;
12776;SDS011;6452;41.572;23.732;2022-09-02T01:32:57;17.98;;;13.40;;
12776;SDS011;6452;41.572;23.732;2022-09-02T01:35:23;15.02;;;13.63;;
12776;SDS011;6452;41.572;23.732;2022-09-02T01:37:52;14.20;;;13.00;;
12776;SDS011;6452;41.572;23.732;2022-09-02T01:40:18;15.40;;;12.55;;
12776;SDS011;6452;41.572;23.732;2022-09-02T01:42:45;16.17;;;12.68;;
12776;SDS011;6452;41.572;23.732;2022-09-02T01:45:11;15.63;;;13.07;;
12776;SDS011;6452;41.572;23.732;2022-09-02T01:47:37;14.20;;;12.52;;
12776;SDS011;6452;41.572;23.732;2022-09-02T01:50:04;15.20;;;12.93;;
12776;SDS011;6452;41.572;23.732;2022-09-02T01:52:30;14.63;;;12.38;;
12776;SDS011;6452;41.572;23.732;2022-09-02T01:54:57;14.18;;;12.07;;
12776;SDS011;6452;41.572;23.732;2022-09-02T01:57:23;13.02;;;11.75;;
12776;SDS011;6452;41.572;23.732;2022-09-02T01:59:50;16.13;;;12.80;;
12776;SDS011;6452;41.572;23.732;2022-09-02T02:02:16;15.63;;;12.32;;
12776;SDS011;6452;41.572;23.732;2022-09-02T02:04:44;14.60;;;13.38;;
12776;SDS011;6452;41.572;23.732;2022-09-02T02:07:11;15.40;;;13.77;;
12776;SDS011;6452;41.572;23.732;2022-09-02T02:09:38;15.38;;;13.98;;
12776;SDS011;6452;41.572;23.732;2022-09-02T02:12:05;16.27;;;14.25;;
12776;SDS011;6452;41.572;23.732;2022-09-02T02:14:32;14.73;;;13.38;;
12776;SDS011;6452;41.572;23.732;2022-09-02T02:16:58;14.57;;;13.18;;
12776;SDS011;6452;41.572;23.732;2022-09-02T02:19:24;15.98;;;13.85;;
12776;SDS011;6452;41.572;23.732;2022-09-02T02:21:50;15.82;;;14.25;;
12776;SDS011;6452;41.572;23.732;2022-09-02T02:24:16;15.52;;;14.05;;
12776;SDS011;6452;41.572;23.732;2022-09-02T02:26:42;15.63;;;13.82;;
12776;SDS011;6452;41.572;23.732;2022-09-02T02:29:09;16.55;;;14.77;;
12776;SDS011;6452;41.572;23.732;2022-09-02T02:31:35;15.20;;;13.70;;
12776;SDS011;6452;41.572;23.732;2022-09-02T02:34:02;16.95;;;15.32;;
12776;SDS011;6452;41.572;23.732;2022-09-02T02:36:31;17.60;;;15.85;;
12776;SDS011;6452;41.572;23.732;2022-09-02T02:38:57;16.10;;;14.60;;
12776;SDS011;6452;41.572;23.732;2022-09-02T02:41:26;16.38;;;14.77;;
12776;SDS011;6452;41.572;23.732;2022-09-02T02:43:52;17.02;;;15.43;;
12776;SDS011;6452;41.572;23.732;2022-09-02T02:46:18;16.13;;;14.52;;
12776;SDS011;6452;41.572;23.732;2022-09-02T02:48:44;16.70;;;15.00;;
12776;SDS011;6452;41.572;23.732;2022-09-02T02:51:10;16.50;;;14.77;;
12776;SDS011;6452;41.572;23.732;2022-09-02T02:53:35;15.75;;;14.35;;
12776;SDS011;6452;41.572;23.732;2022-09-02T02:56:02;16.50;;;14.80;;
12776;SDS011;6452;41.572;23.732;2022-09-02T02:58:28;16.05;;;14.60;;
12776;SDS011;6452;41.572;23.732;2022-09-02T03:00:55;16.80;;;15.30;;
12776;SDS011;6452;41.572;23.732;2022-09-02T03:03:21;16.55;;;14.98;;
12776;SDS011;6452;41.572;23.732;2022-09-02T03:05:47;18.20;;;14.23;;
12776;SDS011;6452;41.572;23.732;2022-09-02T03:08:14;16.60;;;15.00;;
12776;SDS011;6452;41.572;23.732;2022-09-02T03:10:40;16.20;;;14.50;;
12776;SDS011;6452;41.572;23.732;2022-09-02T03:13:07;16.00;;;14.60;;
12776;SDS011;6452;41.572;23.732;2022-09-02T03:15:34;16.23;;;14.63;;
12776;SDS011;6452;41.572;23.732;2022-09-02T03:18:00;17.83;;;14.98;;
12776;SDS011;6452;41.572;23.732;2022-09-02T03:20:26;19.40;;;15.30;;
12776;SDS011;6452;41.572;23.732;2022-09-02T03:22:53;18.35;;;15.90;;
12776;SDS011;6452;41.572;23.732;2022-09-02T03:25:19;17.27;;;15.48;;
12776;SDS011;6452;41.572;23.732;2022-09-02T03:27:47;18.25;;;16.33;;
12776;SDS011;6452;41.572;23.732;2022-09-02T03:30:15;18.75;;;16.77;;
12776;SDS011;6452;41.572;23.732;2022-09-02T03:32:41;16.85;;;15.18;;
12776;SDS011;6452;41.572;23.732;2022-09-02T03:35:08;16.88;;;15.25;;
12776;SDS011;6452;41.572;23.732;2022-09-02T03:37:35;17.30;;;15.45;;
12776;SDS011;6452;41.572;23.732;2022-09-02T03:40:02;18.05;;;15.55;;
12776;SDS011;6452;41.572;23.732;2022-09-02T03:42:28;16.88;;;15.27;;
12776;SDS011;6452;41.572;23.732;2022-09-02T03:44:58;19.90;;;15.77;;
12776;SDS011;6452;41.572;23.732;2022-09-02T03:47:25;17.88;;;15.85;;
12776;SDS011;6452;41.572;23.732;2022-09-02T03:49:53;24.40;;;16.25;;
12776;SDS011;6452;41.572;23.732;2022-09-02T03:52:20;17.10;;;15.60;;
12776;SDS011;6452;41.572;23.732;2022-09-02T03:54:46;18.40;;;16.25;;
12776;SDS011;6452;41.572;23.732;2022-09-02T03:57:12;17.10;;;15.45;;
12776;SDS011;6452;41.572;23.732;2022-09-02T03:59:38;16.77;;;15.07;;
12776;SDS011;6452;41.572;23.732;2022-09-02T04:02:04;17.58;;;15.73;;
12776;SDS011;6452;41.572;23.732;2022-09-02T04:04:30;17.15;;;15.40;;
12776;SDS011;6452;41.572;23.732;2022-09-02T04:06:57;17.65;;;15.85;;
12776;SDS011;6452;41.572;23.732;2022-09-02T04:09:23;16.50;;;14.80;;
12776;SDS011;6452;41.572;23.732;2022-09-02T04:11:49;17.33;;;15.52;;
12776;SDS011;6452;41.572;23.732;2022-09-02T04:14:14;17.40;;;15.60;;
12776;SDS011;6452;41.572;23.732;2022-09-02T04:16:41;18.65;;;16.13;;
12776;SDS011;6452;41.572;23.732;2022-09-02T04:19:07;16.58;;;14.65;;
12776;SDS011;6452;41.572;23.732;2022-09-02T04:21:35;17.17;;;15.55;;
12776;SDS011;6452;41.572;23.732;2022-09-02T04:24:01;17.33;;;15.30;;
12776;SDS011;6452;41.572;23.732;2022-09-02T04:26:27;16.25;;;14.80;;
12776;SDS011;6452;41.572;23.732;2022-09-02T04:28:57;16.70;;;15.20;;
12776;SDS011;6452;41.572;23.732;2022-09-02T04:31:23;16.35;;;14.70;;
12776;SDS011;6452;41.572;23.732;2022-09-02T04:33:50;16.23;;;14.85;;
12776;SDS011;6452;41.572;23.732;2022-09-02T04:36:20;16.65;;;15.15;;
12776;SDS011;6452;41.572;23.732;2022-09-02T04:38:46;15.90;;;14.45;;
12776;SDS011;6452;41.572;23.732;2022-09-02T04:41:16;16.48;;;14.77;;
12776;SDS011;6452;41.572;23.732;2022-09-02T04:43:43;66.15;;;48.50;;
12776;SDS011;6452;41.572;23.732;2022-09-02T04:46:10;59.70;;;44.88;;
12776;SDS011;6452;41.572;23.732;2022-09-02T04:48:36;51.20;;;39.42;;
12776;SDS011;6452;41.572;23.732;2022-09-02T04:51:10;30.10;;;24.83;;
12776;SDS011;6452;41.572;23.732;2022-09-02T04:53:37;22.15;;;19.55;;
12776;SDS011;6452;41.572;23.732;2022-09-02T04:56:03;19.63;;;15.63;;
12776;SDS011;6452;41.572;23.732;2022-09-02T04:58:30;17.27;;;14.48;;
12776;SDS011;6452;41.572;23.732;2022-09-02T05:00:55;15.15;;;13.57;;
12776;SDS011;6452;41.572;23.732;2022-09-02T05:03:22;15.75;;;13.85;;
12776;SDS011;6452;41.572;23.732;2022-09-02T05:06:03;14.13;;;12.65;;
12776;SDS011;6452;41.572;23.732;2022-09-02T05:08:29;14.55;;;13.05;;
12776;SDS011;6452;41.572;23.732;2022-09-02T05:10:55;15.55;;;13.95;;
12776;SDS011;6452;41.572;23.732;2022-09-02T05:13:21;16.55;;;13.77;;
12776;SDS011;6452;41.572;23.732;2022-09-02T05:15:48;16.08;;;14.05;;
12776;SDS011;6452;41.572;23.732;2022-09-02T05:18:14;15.25;;;13.85;;
12776;SDS011;6452;41.572;23.732;2022-09-02T05:20:40;16.13;;;14.43;;
12776;SDS011;6452;41.572;23.732;2022-09-02T05:23:08;19.38;;;16.33;;
12776;SDS011;6452;41.572;23.732;2022-09-02T05:25:36;18.50;;;16.58;;
12776;SDS011;6452;41.572;23.732;2022-09-02T05:28:02;23.02;;;19.88;;
12776;SDS011;6452;41.572;23.732;2022-09-02T05:30:28;27.33;;;20.23;;
12776;SDS011;6452;41.572;23.732;2022-09-02T05:32:54;25.60;;;19.80;;
12776;SDS011;6452;41.572;23.732;2022-09-02T05:35:20;21.25;;;18.17;;
12776;SDS011;6452;41.572;23.732;2022-09-02T05:37:46;21.27;;;17.83;;
12776;SDS011;6452;41.572;23.732;2022-09-02T05:40:16;18.65;;;16.85;;
12776;SDS011;6452;41.572;23.732;2022-09-02T05:42:43;19.80;;;17.83;;
12776;SDS011;6452;41.572;23.732;2022-09-02T05:45:09;18.65;;;16.75;;
12776;SDS011;6452;41.572;23.732;2022-09-02T05:47:35;20.10;;;17.90;;
12776;SDS011;6452;41.572;23.732;2022-09-02T05:50:02;20.17;;;18.02;;
12776;SDS011;6452;41.572;23.732;2022-09-02T05:52:28;21.88;;;18.80;;
12776;SDS011;6452;41.572;23.732;2022-09-02T05:54:55;20.40;;;18.27;;
12776;SDS011;6452;41.572;23.732;2022-09-02T05:57:22;20.40;;;18.20;;
12776;SDS011;6452;41.572;23.732;2022-09-02T05:59:48;23.40;;;18.42;;
12776;SDS011;6452;41.572;23.732;2022-09-02T06:02:20;20.50;;;18.20;;
12776;SDS011;6452;41.572;23.732;2022-09-02T06:04:47;21.02;;;18.52;;
12776;SDS011;6452;41.572;23.732;2022-09-02T06:07:19;20.70;;;18.65;;
12776;SDS011;6452;41.572;23.732;2022-09-02T06:09:45;23.00;;;20.70;;
12776;SDS011;6452;41.572;23.732;2022-09-02T06:12:12;21.67;;;19.55;;
12776;SDS011;6452;41.572;23.732;2022-09-02T06:14:39;20.02;;;18.05;;
12776;SDS011;6452;41.572;23.732;2022-09-02T06:17:06;18.67;;;16.92;;
12776;SDS011;6452;41.572;23.732;2022-09-02T06:19:32;20.25;;;18.15;;
12776;SDS011;6452;41.572;23.732;2022-09-02T06:21:59;20.63;;;18.35;;
12776;SDS011;6452;41.572;23.732;2022-09-02T06:24:26;20.70;;;18.70;;
12776;SDS011;6452;41.572;23.732;2022-09-02T06:26:51;17.92;;;16.33;;
12776;SDS011;6452;41.572;23.732;2022-09-02T06:29:18;20.17;;;18.27;;
12776;SDS011;6452;41.572;23.732;2022-09-02T06:31:46;18.52;;;16.98;;
12776;SDS011;6452;41.572;23.732;2022-09-02T06:34:13;20.05;;;18.13;;
12776;SDS011;6452;41.572;23.732;2022-09-02T06:36:40;20.13;;;18.33;;
12776;SDS011;6452;41.572;23.732;2022-09-02T06:39:08;19.35;;;17.50;;
12776;SDS011;6452;41.572;23.732;2022-09-02T06:41:34;20.25;;;18.27;;
12776;SDS011;6452;41.572;23.732;2022-09-02T06:44:03;24.40;;;19.30;;
12776;SDS011;6452;41.572;23.732;2022-09-02T06:46:33;20.02;;;17.95;;
12776;SDS011;6452;41.572;23.732;2022-09-02T06:48:59;21.60;;;19.27;;
12776;SDS011;6452;41.572;23.732;2022-09-02T06:51:31;21.42;;;18.75;;
12776;SDS011;6452;41.572;23.732;2022-09-02T06:53:57;19.83;;;17.73;;
12776;SDS011;6452;41.572;23.732;2022-09-02T06:56:23;21.35;;;19.17;;
12776;SDS011;6452;41.572;23.732;2022-09-02T06:58:49;21.52;;;19.42;;
12776;SDS011;6452;41.572;23.732;2022-09-02T07:01:25;21.83;;;19.67;;
12776;SDS011;6452;41.572;23.732;2022-09-02T07:03:52;21.65;;;19.65;;
12776;SDS011;6452;41.572;23.732;2022-09-02T07:06:38;20.55;;;18.65;;
12776;SDS011;6452;41.572;23.732;2022-09-02T07:09:05;20.60;;;18.48;;
12776;SDS011;6452;41.572;23.732;2022-09-02T07:11:31;19.80;;;17.70;;
12776;SDS011;6452;41.572;23.732;2022-09-02T07:13:57;20.88;;;17.33;;
12776;SDS011;6452;41.572;23.732;2022-09-02T07:16:30;19.20;;;17.20;;
12776;SDS011;6452;41.572;23.732;2022-09-02T07:18:56;21.27;;;19.33;;
12776;SDS011;6452;41.572;23.732;2022-09-02T07:21:22;19.42;;;17.63;;
12776;SDS011;6452;41.572;23.732;2022-09-02T07:23:48;20.50;;;18.40;;
12776;SDS011;6452;41.572;23.732;2022-09-02T07:26:15;20.40;;;18.52;;
12776;SDS011;6452;41.572;23.732;2022-09-02T07:28:41;20.98;;;18.83;;
12776;SDS011;6452;41.572;23.732;2022-09-02T07:31:08;20.65;;;18.67;;
12776;SDS011;6452;41.572;23.732;2022-09-02T07:33:34;20.77;;;18.85;;
12776;SDS011;6452;41.572;23.732;2022-09-02T07:36:02;23.25;;;18.52;;
12776;SDS011;6452;41.572;23.732;2022-09-02T07:38:30;21.70;;;19.55;;
12776;SDS011;6452;41.572;23.732;2022-09-02T07:40:56;20.02;;;18.23;;
12776;SDS011;6452;41.572;23.732;2022-09-02T07:43:22;20.60;;;18.58;;
12776;SDS011;6452;41.572;23.732;2022-09-02T07:45:48;18.50;;;16.80;;
12776;SDS011;6452;41.572;23.732;2022-09-02T07:48:15;19.52;;;17.73;;
12776;SDS011;6452;41.572;23.732;2022-09-02T07:50:41;18.63;;;16.52;;
12776;SDS011;6452;41.572;23.732;2022-09-02T07:53:07;18.02;;;16.30;;
12776;SDS011;6452;41.572;23.732;2022-09-02T07:55:35;20.48;;;17.45;;
12776;SDS011;6452;41.572;23.732;2022-09-02T07:58:01;18.45;;;16.70;;
12776;SDS011;6452;41.572;23.732;2022-09-02T08:00:27;18.40;;;16.63;;
12776;SDS011;6452;41.572;23.732;2022-09-02T08:02:53;19.17;;;17.23;;
12776;SDS011;6452;41.572;23.732;2022-09-02T08:05:19;18.58;;;16.80;;
12776;SDS011;6452;41.572;23.732;2022-09-02T08:07:46;18.15;;;16.52;;
12776;SDS011;6452;41.572;23.732;2022-09-02T08:10:13;19.08;;;16.63;;
12776;SDS011;6452;41.572;23.732;2022-09-02T08:12:40;19.15;;;17.30;;
12776;SDS011;6452;41.572;23.732;2022-09-02T08:15:06;17.42;;;15.63;;
12776;SDS011;6452;41.572;23.732;2022-09-02T08:17:32;18.25;;;16.52;;
12776;SDS011;6452;41.572;23.732;2022-09-02T08:19:59;18.58;;;16.73;;
12776;SDS011;6452;41.572;23.732;2022-09-02T08:22:29;18.60;;;16.88;;
12776;SDS011;6452;41.572;23.732;2022-09-02T08:24:58;18.50;;;16.85;;
12776;SDS011;6452;41.572;23.732;2022-09-02T08:27:24;17.38;;;15.82;;
12776;SDS011;6452;41.572;23.732;2022-09-02T08:29:52;18.15;;;15.63;;
12776;SDS011;6452;41.572;23.732;2022-09-02T08:32:18;16.38;;;14.85;;
12776;SDS011;6452;41.572;23.732;2022-09-02T08:34:44;16.42;;;14.80;;
12776;SDS011;6452;41.572;23.732;2022-09-02T08:37:10;17.20;;;15.40;;
12776;SDS011;6452;41.572;23.732;2022-09-02T08:39:36;16.35;;;14.68;;
12776;SDS011;6452;41.572;23.732;2022-09-02T08:44:35;15.95;;;14.27;;
12776;SDS011;6452;41.572;23.732;2022-09-02T08:47:07;17.27;;;15.57;;
12776;SDS011;6452;41.572;23.732;2022-09-02T08:49:37;17.05;;;14.40;;
12776;SDS011;6452;41.572;23.732;2022-09-02T08:52:05;16.75;;;15.05;;
12776;SDS011;6452;41.572;23.732;2022-09-02T08:54:45;16.83;;;15.23;;
12776;SDS011;6452;41.572;23.732;2022-09-02T08:57:12;17.38;;;15.02;;
12776;SDS011;6452;41.572;23.732;2022-09-02T08:59:42;17.38;;;14.70;;
12776;SDS011;6452;41.572;23.732;2022-09-02T09:02:16;15.60;;;14.02;;
12776;SDS011;6452;41.572;23.732;2022-09-02T09:05:02;15.60;;;13.75;;
12776;SDS011;6452;41.572;23.732;2022-09-02T09:13:03;16.45;;;12.85;;
12776;SDS011;6452;41.572;23.732;2022-09-02T09:18:12;15.40;;;12.95;;
12776;SDS011;6452;41.572;23.732;2022-09-02T09:20:41;16.73;;;11.60;;
12776;SDS011;6452;41.572;23.732;2022-09-02T09:23:28;13.05;;;11.55;;
12776;SDS011;6452;41.572;23.732;2022-09-02T09:25:55;15.05;;;12.07;;
12776;SDS011;6452;41.572;23.732;2022-09-02T09:28:25;16.67;;;12.32;;
12776;SDS011;6452;41.572;23.732;2022-09-02T09:30:51;14.52;;;13.05;;
12776;SDS011;6452;41.572;23.732;2022-09-02T09:33:17;14.45;;;12.38;;
12776;SDS011;6452;41.572;23.732;2022-09-02T09:38:12;13.85;;;12.40;;
12776;SDS011;6452;41.572;23.732;2022-09-02T09:40:38;14.65;;;12.35;;
12776;SDS011;6452;41.572;23.732;2022-09-02T09:45:32;15.15;;;12.00;;
12776;SDS011;6452;41.572;23.732;2022-09-02T09:53:32;14.65;;;13.07;;
12776;SDS011;6452;41.572;23.732;2022-09-02T09:56:02;17.73;;;13.07;;
12776;SDS011;6452;41.572;23.732;2022-09-02T10:00:57;17.58;;;13.15;;
12776;SDS011;6452;41.572;23.732;2022-09-02T10:03:27;19.75;;;14.73;;
12776;SDS011;6452;41.572;23.732;2022-09-02T10:06:18;16.02;;;14.52;;
12776;SDS011;6452;41.572;23.732;2022-09-02T10:09:04;15.95;;;14.48;;
12776;SDS011;6452;41.572;23.732;2022-09-02T10:11:31;25.23;;;14.63;;
12776;SDS011;6452;41.572;23.732;2022-09-02T10:14:05;16.35;;;14.65;;
12776;SDS011;6452;41.572;23.732;2022-09-02T10:19:12;17.10;;;15.45;;
12776;SDS011;6452;41.572;23.732;2022-09-02T10:21:50;16.95;;;15.40;;
12776;SDS011;6452;41.572;23.732;2022-09-02T10:27:06;18.95;;;16.25;;
12776;SDS011;6452;41.572;23.732;2022-09-02T10:34:52;18.60;;;16.95;;
12776;SDS011;6452;41.572;23.732;2022-09-02T10:37:25;18.90;;;17.20;;
12776;SDS011;6452;41.572;23.732;2022-09-02T10:47:38;17.20;;;15.63;;
12776;SDS011;6452;41.572;23.732;2022-09-02T10:50:07;17.58;;;15.63;;
12776;SDS011;6452;41.572;23.732;2022-09-02T10:53:12;17.45;;;15.88;;
12776;SDS011;6452;41.572;23.732;2022-09-02T10:58:06;17.25;;;15.55;;
12776;SDS011;6452;41.572;23.732;2022-09-02T11:00:33;16.67;;;15.00;;
12776;SDS011;6452;41.572;23.732;2022-09-02T11:03:13;16.42;;;14.70;;
12776;SDS011;6452;41.572;23.732;2022-09-02T11:08:26;13.68;;;12.48;;
12776;SDS011;6452;41.572;23.732;2022-09-02T11:13:42;12.55;;;11.30;;
12776;SDS011;6452;41.572;23.732;2022-09-02T11:16:10;11.57;;;10.50;;
12776;SDS011;6452;41.572;23.732;2022-09-02T11:18:47;11.93;;;10.85;;
12776;SDS011;6452;41.572;23.732;2022-09-02T11:35:04;14.20;;;11.65;;
12776;SDS011;6452;41.572;23.732;2022-09-02T11:40:02;11.60;;;10.45;;
12776;SDS011;6452;41.572;23.732;2022-09-02T11:42:31;12.38;;;11.18;;
12776;SDS011;6452;41.572;23.732;2022-09-02T11:47:54;12.02;;;10.75;;
12776;SDS011;6452;41.572;23.732;2022-09-02T11:53:04;12.98;;;11.63;;
12776;SDS011;6452;41.572;23.732;2022-09-02T11:55:37;11.57;;;10.40;;
12776;SDS011;6452;41.572;23.732;2022-09-02T11:58:04;12.02;;;10.90;;
12776;SDS011;6452;41.572;23.732;2022-09-02T12:00:31;11.73;;;10.80;;
12776;SDS011;6452;41.572;23.732;2022-09-02T12:03:00;10.82;;;9.23;;
12776;SDS011;6452;41.572;23.732;2022-09-02T12:10:56;9.50;;;8.63;;
12776;SDS011;6452;41.572;23.732;2022-09-02T12:21:26;9.98;;;9.07;;
12776;SDS011;6452;41.572;23.732;2022-09-02T12:26:21;12.63;;;11.30;;
12776;SDS011;6452;41.572;23.732;2022-09-02T12:28:51;12.07;;;10.77;;
12776;SDS011;6452;41.572;23.732;2022-09-02T12:44:45;10.63;;;9.07;;
12776;SDS011;6452;41.572;23.732;2022-09-02T12:57:41;10.85;;;9.75;;
12776;SDS011;6452;41.572;23.732;2022-09-02T13:20:56;10.45;;;9.20;;
12776;SDS011;6452;41.572;23.732;2022-09-02T13:31:23;9.48;;;8.65;;
12776;SDS011;6452;41.572;23.732;2022-09-02T13:34:00;9.38;;;8.13;;
12776;SDS011;6452;41.572;23.732;2022-09-02T13:36:28;8.13;;;7.32;;
12776;SDS011;6452;41.572;23.732;2022-09-02T13:38:55;9.77;;;7.85;;
12776;SDS011;6452;41.572;23.732;2022-09-02T13:41:30;8.90;;;7.95;;
12776;SDS011;6452;41.572;23.732;2022-09-02T13:44:03;8.15;;;7.45;;
12776;SDS011;6452;41.572;23.732;2022-09-02T13:46:29;8.32;;;7.55;;
12776;SDS011;6452;41.572;23.732;2022-09-02T13:48:56;8.70;;;8.00;;
12776;SDS011;6452;41.572;23.732;2022-09-02T13:51:22;8.90;;;8.00;;
12776;SDS011;6452;41.572;23.732;2022-09-02T13:53:47;8.73;;;7.72;;
12776;SDS011;6452;41.572;23.732;2022-09-02T13:56:15;10.02;;;7.22;;
12776;SDS011;6452;41.572;23.732;2022-09-02T13:58:48;8.95;;;7.90;;
12776;SDS011;6452;41.572;23.732;2022-09-02T14:03:48;10.50;;;7.78;;
12776;SDS011;6452;41.572;23.732;2022-09-02T14:06:32;8.45;;;7.75;;
12776;SDS011;6452;41.572;23.732;2022-09-02T14:09:01;10.20;;;8.38;;
12776;SDS011;6452;41.572;23.732;2022-09-02T14:11:27;11.77;;;8.25;;
12776;SDS011;6452;41.572;23.732;2022-09-02T14:13:53;8.35;;;7.60;;
12776;SDS011;6452;41.572;23.732;2022-09-02T14:21:35;9.23;;;8.32;;
12776;SDS011;6452;41.572;23.732;2022-09-02T14:24:01;9.80;;;7.85;;
12776;SDS011;6452;41.572;23.732;2022-09-02T14:28:55;8.52;;;7.78;;
12776;SDS011;6452;41.572;23.732;2022-09-02T14:31:22;10.10;;;8.48;;
12776;SDS011;6452;41.572;23.732;2022-09-02T14:33:49;9.77;;;8.88;;
12776;SDS011;6452;41.572;23.732;2022-09-02T14:48:56;10.43;;;9.60;;
12776;SDS011;6452;41.572;23.732;2022-09-02T14:51:30;10.27;;;9.23;;
12776;SDS011;6452;41.572;23.732;2022-09-02T14:53:56;10.88;;;9.23;;
12776;SDS011;6452;41.572;23.732;2022-09-02T14:56:41;9.43;;;8.48;;
12776;SDS011;6452;41.572;23.732;2022-09-02T14:59:07;8.77;;;7.95;;
12776;SDS011;6452;41.572;23.732;2022-09-02T15:01:39;9.10;;;8.30;;
12776;SDS011;6452;41.572;23.732;2022-09-02T15:04:05;10.07;;;8.13;;
12776;SDS011;6452;41.572;23.732;2022-09-02T15:06:32;10.15;;;8.32;;
12776;SDS011;6452;41.572;23.732;2022-09-02T15:08:58;8.40;;;7.63;;
12776;SDS011;6452;41.572;23.732;2022-09-02T15:11:24;8.90;;;8.20;;
12776;SDS011;6452;41.572;23.732;2022-09-02T15:13:49;8.63;;;7.75;;
12776;SDS011;6452;41.572;23.732;2022-09-02T15:16:15;8.85;;;8.07;;
12776;SDS011;6452;41.572;23.732;2022-09-02T15:18:42;8.13;;;7.53;;
12776;SDS011;6452;41.572;23.732;2022-09-02T15:21:08;7.15;;;6.65;;
12776;SDS011;6452;41.572;23.732;2022-09-02T15:23:34;8.60;;;7.70;;
12776;SDS011;6452;41.572;23.732;2022-09-02T15:26:05;7.75;;;7.15;;
12776;SDS011;6452;41.572;23.732;2022-09-02T15:28:31;7.00;;;6.40;;
12776;SDS011;6452;41.572;23.732;2022-09-02T15:30:57;7.15;;;6.55;;
12776;SDS011;6452;41.572;23.732;2022-09-02T15:33:24;7.80;;;7.00;;
12776;SDS011;6452;41.572;23.732;2022-09-02T15:35:50;6.63;;;6.13;;
12776;SDS011;6452;41.572;23.732;2022-09-02T15:38:16;7.13;;;5.95;;
12776;SDS011;6452;41.572;23.732;2022-09-02T15:40:43;7.43;;;6.00;;
12776;SDS011;6452;41.572;23.732;2022-09-02T15:43:12;7.30;;;5.38;;
12776;SDS011;6452;41.572;23.732;2022-09-02T15:45:55;9.55;;;5.53;;
12776;SDS011;6452;41.572;23.732;2022-09-02T15:48:21;6.45;;;4.85;;
12776;SDS011;6452;41.572;23.732;2022-09-02T15:50:51;7.43;;;5.25;;
12776;SDS011;6452;41.572;23.732;2022-09-02T15:53:17;5.68;;;4.75;;
12776;SDS011;6452;41.572;23.732;2022-09-02T15:55:43;4.82;;;4.43;;
12776;SDS011;6452;41.572;23.732;2022-09-02T15:58:10;4.63;;;4.22;;
12776;SDS011;6452;41.572;23.732;2022-09-02T16:00:40;5.05;;;4.55;;
12776;SDS011;6452;41.572;23.732;2022-09-02T16:03:07;5.20;;;4.70;;
12776;SDS011;6452;41.572;23.732;2022-09-02T16:05:33;5.75;;;5.20;;
12776;SDS011;6452;41.572;23.732;2022-09-02T16:07:59;5.82;;;4.88;;
12776;SDS011;6452;41.572;23.732;2022-09-02T16:10:26;8.25;;;5.65;;
12776;SDS011;6452;41.572;23.732;2022-09-02T16:12:52;8.52;;;5.07;;
12776;SDS011;6452;41.572;23.732;2022-09-02T16:15:18;8.25;;;5.40;;
12776;SDS011;6452;41.572;23.732;2022-09-02T16:17:45;11.23;;;8.63;;
12776;SDS011;6452;41.572;23.732;2022-09-02T16:20:12;22.73;;;11.73;;
12776;SDS011;6452;41.572;23.732;2022-09-02T16:22:37;7.03;;;6.35;;
12776;SDS011;6452;41.572;23.732;2022-09-02T16:25:07;9.38;;;5.30;;
12776;SDS011;6452;41.572;23.732;2022-09-02T16:27:34;6.10;;;5.60;;
12776;SDS011;6452;41.572;23.732;2022-09-02T16:30:19;6.55;;;6.05;;
12776;SDS011;6452;41.572;23.732;2022-09-02T16:32:45;7.95;;;6.78;;
12776;SDS011;6452;41.572;23.732;2022-09-02T16:35:15;6.90;;;6.30;;
12776;SDS011;6452;41.572;23.732;2022-09-02T16:37:40;7.85;;;6.80;;
12776;SDS011;6452;41.572;23.732;2022-09-02T16:40:06;6.72;;;5.65;;
12776;SDS011;6452;41.572;23.732;2022-09-02T16:42:33;7.28;;;6.57;;
12776;SDS011;6452;41.572;23.732;2022-09-02T16:44:59;7.47;;;6.18;;
12776;SDS011;6452;41.572;23.732;2022-09-02T16:47:25;7.10;;;6.47;;
12776;SDS011;6452;41.572;23.732;2022-09-02T16:49:55;9.77;;;8.80;;
12776;SDS011;6452;41.572;23.732;2022-09-02T16:52:21;11.07;;;8.77;;
12776;SDS011;6452;41.572;23.732;2022-09-02T16:54:47;10.70;;;9.65;;
12776;SDS011;6452;41.572;23.732;2022-09-02T16:57:14;12.25;;;10.63;;
12776;SDS011;6452;41.572;23.732;2022-09-02T16:59:40;12.00;;;10.30;;
12776;SDS011;6452;41.572;23.732;2022-09-02T17:02:06;12.35;;;10.00;;
12776;SDS011;6452;41.572;23.732;2022-09-02T17:04:32;12.43;;;10.07;;
12776;SDS011;6452;41.572;23.732;2022-09-02T17:06:58;11.98;;;8.55;;
12776;SDS011;6452;41.572;23.732;2022-09-02T17:09:24;8.57;;;7.72;;
12776;SDS011;6452;41.572;23.732;2022-09-02T17:11:50;10.23;;;7.90;;
12776;SDS011;6452;41.572;23.732;2022-09-02T17:14:16;9.20;;;8.15;;
12776;SDS011;6452;41.572;23.732;2022-09-02T17:16:46;8.50;;;7.43;;